Time;durP1;ratioP1;P1;durP2;ratioP2;P2;SDS_P1;SDS_P2;PMS_P1;PMS_P2;Temp;Humidity;BMP_temperature;BMP_pressure;BME280_temperature;BME280_humidity;BME280_pressure;Samples;Min_cycle;Max_cycle;Signal;HPM_P1;HPM_P2
2022/05/02 05:10:11;;;;;;;1.77;0.40;;;16.20;53.20;;;;;;5933852;23;20116;-70
2022/05/02 05:13:05;;;;;;;1.58;0.20;;;16.30;53.00;;;;;;4935718;29;20078;-72
2022/05/02 05:16:20;;;;;;;1.67;0.20;;;16.50;53.10;;;;;;4937962;29;20055;-74
2022/05/02 05:19:11;;;;;;;5.35;0.20;;;16.60;53.60;;;;;;4918883;29;20078;-77
2022/05/02 05:21:37;;;;;;;3.70;0.40;;;16.70;52.90;;;;;;4918802;29;20111;-73
2022/05/02 05:24:40;;;;;;;3.22;0.60;;;16.80;52.60;;;;;;4902221;29;20060;-74
2022/05/02 05:27:15;;;;;;;5.70;0.60;;;16.90;52.80;;;;;;4918285;29;20052;-75
2022/05/02 05:30:03;;;;;;;7.18;0.60;;;17.00;53.10;;;;;;4933546;29;20122;-74
2022/05/02 05:32:57;;;;;;;6.28;0.65;;;17.20;53.50;;;;;;4937611;29;20094;-76
2022/05/02 05:36:04;;;;;;;11.07;1.60;;;17.40;53.90;;;;;;4937524;29;20040;-72
2022/05/02 05:38:51;;;;;;;12.48;1.20;;;17.50;53.80;;;;;;4906239;29;20051;-78
2022/05/02 05:41:44;;;;;;;8.38;1.02;;;17.70;54.40;;;;;;4922859;29;20039;-74
2022/05/02 05:44:25;;;;;;;17.75;1.83;;;17.90;54.60;;;;;;4927653;29;20032;-77
2022/05/02 05:47:11;;;;;;;9.30;1.00;;;18.00;54.60;;;;;;4941252;29;20062;-76
2022/05/02 05:50:08;;;;;;;10.65;1.80;;;18.00;55.10;;;;;;4909511;29;20105;-72
2022/05/02 05:53:01;;;;;;;23.13;2.00;;;18.00;55.00;;;;;;4924334;29;20058;-77
2022/05/02 05:55:29;;;;;;;9.37;1.80;;;18.00;55.30;;;;;;4940058;29;20047;-75
2022/05/02 05:58:12;;;;;;;14.18;1.42;;;18.00;55.30;;;;;;4937728;29;20036;-76
2022/05/02 06:00:44;;;;;;;40.63;4.20;;;18.00;55.60;;;;;;4924097;29;20348;-76
2022/05/02 06:03:25;;;;;;;17.02;1.70;;;17.90;54.50;;;;;;4941511;29;20054;-74
2022/05/02 06:05:51;;;;;;;13.00;1.30;;;18.00;55.60;;;;;;4921883;29;20063;-75
2022/05/02 06:08:16;;;;;;;14.77;1.52;;;18.00;56.00;;;;;;4941696;29;20044;-78
2022/05/02 06:10:43;;;;;;;14.85;1.63;;;17.90;56.30;;;;;;4940697;29;20047;-75
2022/05/02 06:13:09;;;;;;;16.92;1.95;;;17.90;56.50;;;;;;4941130;29;20060;-74
2022/05/02 06:18:28;;;;;;;14.40;2.08;;;17.80;57.50;;;;;;4921978;29;20052;-74
2022/05/02 06:21:01;;;;;;;12.05;1.88;;;17.80;58.00;;;;;;4921893;29;20052;-74
2022/05/02 06:23:31;;;;;;;14.15;1.77;;;17.70;58.30;;;;;;4921896;29;20040;-76
2022/05/02 06:25:57;;;;;;;18.42;1.85;;;17.70;58.80;;;;;;4922015;29;20437;-77
2022/05/02 06:28:28;;;;;;;8.05;1.90;;;17.60;59.00;;;;;;4924079;29;20131;-76
2022/05/02 06:30:58;;;;;;;8.70;1.30;;;17.60;59.40;;;;;;4940831;29;20126;-74
2022/05/02 06:33:24;;;;;;;11.90;1.80;;;17.50;59.70;;;;;;4924073;29;20062;-73
2022/05/02 06:36:35;;;;;;;6.75;1.60;;;17.40;59.60;;;;;;4941088;29;20389;-74
2022/05/02 06:39:26;;;;;;;8.65;2.20;;;17.40;59.40;;;;;;4937806;29;20103;-74
2022/05/02 06:42:04;;;;;;;12.68;2.92;;;17.50;58.80;;;;;;4941007;29;20054;-74
2022/05/02 06:44:57;;;;;;;7.18;4.00;;;17.50;58.30;;;;;;4940586;29;20083;-77
2022/05/02 06:47:29;;;;;;;7.22;3.42;;;17.50;57.70;;;;;;4939432;29;20051;-75
2022/05/02 06:49:59;;;;;;;11.90;4.50;;;17.60;57.20;;;;;;4940825;29;20345;-72
2022/05/02 06:52:37;;;;;;;10.18;3.25;;;17.50;56.40;;;;;;4940106;29;20048;-76
2022/05/02 06:55:30;;;;;;;10.77;3.38;;;17.50;56.10;;;;;;4940476;29;20051;-76
2022/05/02 06:58:14;;;;;;;10.55;3.13;;;17.50;55.60;;;;;;4940641;29;20047;-73
2022/05/02 07:01:10;;;;;;;14.40;3.05;;;17.50;55.30;;;;;;4940299;29;20047;-73
2022/05/02 07:04:07;;;;;;;9.02;2.47;;;17.50;55.70;;;;;;4928421;29;20069;-74
2022/05/02 07:06:38;;;;;;;11.25;2.60;;;17.50;55.90;;;;;;4940917;29;20087;-74
2022/05/02 07:09:06;;;;;;;16.40;2.53;;;17.50;56.20;;;;;;4939717;29;20392;-76
2022/05/02 07:12:12;;;;;;;18.13;2.90;;;17.60;56.30;;;;;;4939293;29;20055;-75
2022/05/02 07:14:59;;;;;;;18.67;2.95;;;17.60;56.70;;;;;;4928784;29;20059;-73
2022/05/02 07:17:56;;;;;;;16.58;2.40;;;17.70;56.90;;;;;;4939473;29;20055;-75
2022/05/02 07:20:35;;;;;;;18.35;2.90;;;17.70;57.00;;;;;;4939794;29;20084;-73
2022/05/02 07:23:27;;;;;;;8.98;2.00;;;17.70;57.00;;;;;;4939529;29;20059;-74
2022/05/02 07:26:14;;;;;;;15.77;2.38;;;17.80;57.00;;;;;;4926506;29;20052;-72
2022/05/02 07:28:45;;;;;;;12.27;1.92;;;17.90;56.80;;;;;;4939482;29;20048;-70
2022/05/02 07:31:18;;;;;;;18.08;2.50;;;18.00;56.60;;;;;;4939803;29;20360;-75
2022/05/02 07:33:47;;;;;;;11.75;2.28;;;17.90;56.70;;;;;;4937272;29;20065;-72
2022/05/02 07:36:17;;;;;;;15.48;2.30;;;18.00;56.80;;;;;;4939380;29;20115;-73
2022/05/02 07:38:47;;;;;;;10.07;2.53;;;18.00;55.90;;;;;;4939461;29;20051;-73
2022/05/02 07:41:23;;;;;;;8.40;2.47;;;18.00;55.20;;;;;;4939462;29;20121;-72
2022/05/02 07:44:12;;;;;;;11.32;2.72;;;18.00;54.50;;;;;;4939345;29;20058;-73
2022/05/02 07:46:38;;;;;;;6.97;2.70;;;18.10;53.80;;;;;;4923224;29;20087;-74
2022/05/02 07:49:06;;;;;;;10.13;2.53;;;18.10;53.40;;;;;;4922588;29;20066;-72
2022/05/02 07:51:34;;;;;;;6.03;2.40;;;18.00;53.00;;;;;;4938561;29;20054;-73
2022/05/02 07:54:01;;;;;;;7.22;2.50;;;18.10;52.70;;;;;;4939499;29;20135;-76
2022/05/02 07:56:31;;;;;;;8.40;2.20;;;18.10;52.20;;;;;;4939197;29;20047;-75
2022/05/02 07:58:58;;;;;;;7.70;2.33;;;18.10;51.90;;;;;;4938628;29;20043;-74
2022/05/02 08:01:25;;;;;;;4.25;1.80;;;18.10;52.10;;;;;;4922087;29;20059;-74
2022/05/02 08:03:52;;;;;;;5.47;2.42;;;18.10;52.60;;;;;;4921720;29;20060;-75
2022/05/02 08:06:46;;;;;;;19.70;2.55;;;18.10;52.90;;;;;;4936085;29;20106;-75
2022/05/02 08:09:20;;;;;;;3.45;1.40;;;18.00;52.30;;;;;;4938820;29;20121;-74
2022/05/02 08:11:55;;;;;;;7.38;1.95;;;17.90;53.60;;;;;;4939134;29;20056;-75
2022/05/02 08:14:31;;;;;;;6.03;2.00;;;18.00;53.30;;;;;;4938894;29;20062;-76
2022/05/02 08:17:07;;;;;;;6.65;2.08;;;18.10;52.70;;;;;;4922147;29;20066;-73
2022/05/02 08:19:43;;;;;;;3.20;1.60;;;18.00;52.60;;;;;;4939101;29;20415;-77
2022/05/02 08:28:02;;;;;;;6.85;1.85;;;18.10;52.80;;;;;;4938308;29;20436;-75
2022/05/02 08:30:34;;;;;;;6.55;1.95;;;18.10;52.60;;;;;;4938175;29;20055;-81
2022/05/02 08:33:08;;;;;;;11.85;1.63;;;18.10;52.80;;;;;;4921847;29;20059;-76
2022/05/02 08:36:03;;;;;;;8.43;2.47;;;18.10;53.20;;;;;;4938775;29;20083;-76
2022/05/02 08:38:57;;;;;;;7.75;1.80;;;18.10;53.40;;;;;;4921118;29;20059;-74
2022/05/02 08:41:29;;;;;;;5.32;1.40;;;18.10;53.00;;;;;;4906644;29;20052;-75
2022/05/02 08:44:06;;;;;;;9.60;2.38;;;18.10;52.90;;;;;;4921644;29;20056;-76
2022/05/02 08:46:56;;;;;;;4.47;1.90;;;18.10;52.50;;;;;;4938162;29;20048;-78
2022/05/02 08:50:19;;;;;;;10.25;3.33;;;18.20;52.60;;;;;;4938236;29;20047;-76
2022/05/02 08:52:59;;;;;;;17.25;4.10;;;18.10;52.50;;;;;;4842596;29;20091;-76
2022/05/02 08:55:31;;;;;;;9.45;2.65;;;18.10;53.10;;;;;;4842684;29;20071;-76
2022/05/02 08:58:30;;;;;;;7.80;1.90;;;18.10;53.40;;;;;;4899400;29;20060;-77
2022/05/02 09:01:26;;;;;;;10.90;3.10;;;18.10;52.80;;;;;;4937258;29;20090;-78
2022/05/02 09:04:01;;;;;;;7.03;1.65;;;18.20;52.90;;;;;;4938216;29;20052;-76
2022/05/02 09:06:55;;;;;;;6.95;2.47;;;18.10;53.40;;;;;;4937835;29;20465;-75
2022/05/02 09:09:49;;;;;;;9.23;2.40;;;18.10;53.70;;;;;;4921926;29;20487;-73
2022/05/02 09:12:50;;;;;;;7.15;2.38;;;18.10;53.20;;;;;;4937833;29;20064;-74
2022/05/02 09:15:53;;;;;;;7.93;2.03;;;18.10;53.00;;;;;;4907338;29;20107;-73
2022/05/02 09:18:42;;;;;;;5.53;1.85;;;18.10;52.70;;;;;;4921319;29;20051;-77
2022/05/02 09:21:34;;;;;;;9.82;2.35;;;18.10;53.00;;;;;;4938226;29;20380;-76
2022/05/02 09:24:17;;;;;;;15.70;3.08;;;18.00;53.60;;;;;;4908399;29;20154;-73
2022/05/02 09:27:27;;;;;;;15.65;2.50;;;17.90;54.40;;;;;;4937697;29;20047;-75
2022/05/02 09:30:30;;;;;;;10.73;2.03;;;17.90;54.70;;;;;;4889505;29;20056;-73
2022/05/02 09:33:02;;;;;;;7.07;2.20;;;17.80;55.00;;;;;;4937596;29;20115;-72
2022/05/02 09:35:36;;;;;;;9.13;2.78;;;17.80;55.10;;;;;;4938127;29;20077;-73
2022/05/02 09:38:25;;;;;;;7.57;2.17;;;17.70;55.40;;;;;;4920981;29;20047;-72
2022/05/02 09:41:06;;;;;;;5.22;1.75;;;17.70;55.00;;;;;;4921382;29;20052;-73
2022/05/02 09:49:54;;;;;;;8.15;1.77;;;17.60;55.20;;;;;;4921268;29;20519;-73
2022/05/02 09:52:28;;;;;;;9.15;1.80;;;17.70;55.50;;;;;;4937441;29;20071;-74
2022/05/02 09:58:29;;;;;;;4.75;1.52;;;17.70;55.10;;;;;;4852043;29;20060;-74
2022/05/02 10:01:18;;;;;;;4.47;1.58;;;17.70;55.50;;;;;;4906670;29;20051;-72
2022/05/02 10:03:53;;;;;;;8.52;1.70;;;17.70;54.70;;;;;;4937368;29;20162;-73
2022/05/02 10:06:41;;;;;;;3.85;1.23;;;17.70;55.00;;;;;;4937419;29;20524;-73
2022/05/02 10:09:36;;;;;;;4.53;1.58;;;17.70;55.20;;;;;;4937762;29;20048;-74
2022/05/02 10:12:39;;;;;;;3.95;1.60;;;17.70;55.00;;;;;;4889897;29;20107;-74
2022/05/02 10:15:34;;;;;;;5.82;1.70;;;17.70;54.90;;;;;;4918508;29;20131;-73
2022/05/02 10:18:14;;;;;;;4.93;1.60;;;17.70;54.60;;;;;;4918723;29;20065;-74
2022/05/02 10:21:09;;;;;;;5.68;1.45;;;17.70;54.90;;;;;;4901734;29;20056;-73
2022/05/02 10:23:50;;;;;;;4.25;1.45;;;17.70;54.90;;;;;;4918503;29;20052;-74
2022/05/02 10:26:31;;;;;;;2.70;1.17;;;17.70;55.00;;;;;;4901945;29;20126;-73
2022/05/02 10:29:19;;;;;;;3.00;1.00;;;17.70;55.00;;;;;;4905746;29;20044;-72
2022/05/02 10:31:51;;;;;;;2.55;1.30;;;17.70;54.30;;;;;;4905558;29;20134;-75
2022/05/02 10:34:20;;;;;;;2.85;1.20;;;17.70;54.80;;;;;;4905421;29;20095;-73
2022/05/02 10:36:50;;;;;;;6.20;1.65;;;17.70;54.60;;;;;;4922120;29;20052;-73
2022/05/02 10:39:22;;;;;;;5.10;1.40;;;17.70;54.70;;;;;;4904736;29;20096;-73
2022/05/02 10:41:48;;;;;;;4.68;1.30;;;17.60;54.50;;;;;;4905641;29;20067;-74
2022/05/02 10:44:16;;;;;;;2.83;1.40;;;17.60;54.60;;;;;;4921955;29;20048;-72
2022/05/02 10:46:45;;;;;;;1.83;0.80;;;17.60;54.70;;;;;;4921956;29;20123;-74
2022/05/02 10:49:44;;;;;;;2.22;1.15;;;17.60;54.30;;;;;;4921778;29;20045;-73
2022/05/02 10:52:32;;;;;;;2.03;1.00;;;17.60;54.20;;;;;;4921639;29;20177;-73
2022/05/02 10:55:12;;;;;;;1.65;0.90;;;17.60;54.20;;;;;;4921624;29;20480;-73
2022/05/02 10:57:49;;;;;;;2.47;1.10;;;17.60;54.40;;;;;;4902198;29;20079;-72
2022/05/02 11:00:15;;;;;;;2.80;1.77;;;17.60;54.40;;;;;;4920916;29;20365;-74
2022/05/02 11:03:04;;;;;;;7.32;1.73;;;17.60;54.40;;;;;;4921236;29;20048;-77
2022/05/02 11:06:03;;;;;;;12.40;2.00;;;17.60;53.80;;;;;;4922092;29;20079;-73
2022/05/02 11:08:42;;;;;;;10.65;2.50;;;17.60;54.30;;;;;;4920597;29;20067;-77
2022/05/02 11:11:15;;;;;;;15.32;2.40;;;17.60;56.30;;;;;;4912018;29;20060;-75
2022/05/02 11:13:48;;;;;;;7.13;2.10;;;17.70;55.60;;;;;;4940245;29;20118;-77
2022/05/02 11:16:50;;;;;;;10.43;3.15;;;17.70;55.20;;;;;;4938838;29;20501;-76
2022/05/02 11:22:39;;;;;;;10.70;2.95;;;17.80;55.80;;;;;;4925506;29;20047;-76
2022/05/02 11:25:17;;;;;;;9.15;2.58;;;17.80;56.10;;;;;;4939694;29;20047;-77
2022/05/02 11:27:58;;;;;;;7.78;2.13;;;17.90;58.40;;;;;;4940477;29;20051;-77
2022/05/02 11:30:31;;;;;;;14.48;3.13;;;17.90;58.40;;;;;;4939666;29;20050;-78
2022/05/02 11:33:15;;;;;;;6.28;1.85;;;18.00;57.80;;;;;;4939687;29;20051;-77
2022/05/02 11:35:47;;;;;;;7.30;2.20;;;18.00;57.70;;;;;;4939583;29;20047;-77
2022/05/02 11:38:34;;;;;;;4.57;1.85;;;18.00;57.50;;;;;;4938588;29;20055;-77
2022/05/02 11:41:11;;;;;;;6.40;1.70;;;18.00;57.80;;;;;;4939977;29;20055;-79
2022/05/02 11:43:37;;;;;;;5.22;1.95;;;18.00;57.60;;;;;;4939554;29;20051;-76
2022/05/02 11:46:18;;;;;;;6.72;1.80;;;18.10;57.10;;;;;;4939496;29;20047;-77
2022/05/02 11:49:03;;;;;;;8.45;2.33;;;18.00;56.60;;;;;;4939393;29;20048;-77
2022/05/02 11:51:43;;;;;;;11.07;2.58;;;18.00;56.40;;;;;;4938644;29;20055;-75
2022/05/02 11:54:27;;;;;;;6.78;1.80;;;18.00;56.70;;;;;;4939128;29;20356;-75
2022/05/02 11:57:20;;;;;;;10.80;2.42;;;18.00;56.50;;;;;;4937374;29;20047;-78
2022/05/02 12:00:14;;;;;;;8.27;2.60;;;18.00;55.90;;;;;;4930783;29;20452;-77
2022/05/02 12:02:48;;;;;;;7.25;2.22;;;18.00;55.90;;;;;;4937092;29;20131;-77
2022/05/02 12:05:27;;;;;;;12.20;2.53;;;18.00;56.70;;;;;;4939162;29;20044;-77
2022/05/02 12:07:57;;;;;;;7.03;1.83;;;18.00;57.00;;;;;;4938192;29;20058;-77
2022/05/02 12:10:34;;;;;;;12.30;2.20;;;18.00;57.30;;;;;;4939072;29;20075;-76
2022/05/02 12:13:01;;;;;;;8.30;1.73;;;18.00;57.70;;;;;;4938359;29;20429;-76
2022/05/02 12:15:28;;;;;;;9.77;2.70;;;18.00;57.60;;;;;;4938942;29;20052;-76
2022/05/02 12:18:03;;;;;;;10.35;1.67;;;18.00;57.30;;;;;;4937502;29;20126;-77
2022/05/02 12:20:36;;;;;;;7.05;1.60;;;18.00;57.60;;;;;;4937706;29;20087;-76
2022/05/02 12:23:16;;;;;;;10.35;2.78;;;18.00;57.80;;;;;;4938004;29;20063;-80
2022/05/02 12:25:50;;;;;;;9.23;1.75;;;18.00;57.90;;;;;;4938810;29;20048;-79
2022/05/02 12:28:37;;;;;;;9.98;1.70;;;18.00;58.30;;;;;;4938649;29;20126;-78
2022/05/02 12:31:07;;;;;;;9.13;1.50;;;18.00;58.30;;;;;;4937600;29;20102;-80
2022/05/02 12:33:43;;;;;;;9.45;1.98;;;18.00;58.30;;;;;;4938036;29;20090;-78
2022/05/02 12:36:17;;;;;;;6.38;1.73;;;18.00;58.30;;;;;;4937934;29;20040;-81
2022/05/02 12:39:03;;;;;;;;;;;18.00;58.50;;;;;;4938788;29;20047;-79
2022/05/02 12:41:41;;;;;;;9.65;2.08;;;18.00;58.90;;;;;;4936440;29;19918;-78
2022/05/02 12:44:08;;;;;;;8.77;1.92;;;17.90;58.50;;;;;;4936987;29;20412;-79
2022/05/02 12:46:39;;;;;;;7.35;1.85;;;18.00;58.50;;;;;;4938202;29;20118;-80
2022/05/02 12:49:10;;;;;;;8.38;1.75;;;17.90;58.70;;;;;;4938192;29;20050;-79
2022/05/02 12:51:37;;;;;;;7.45;1.83;;;17.90;58.60;;;;;;4937443;29;20060;-79
2022/05/02 12:54:13;;;;;;;4.85;1.70;;;17.90;58.60;;;;;;4937113;29;20420;-79
2022/05/02 13:02:32;;;;;;;10.45;1.45;;;17.90;58.80;;;;;;4938434;29;20051;-80
2022/05/02 13:05:01;;;;;;;6.07;1.50;;;17.80;58.80;;;;;;4938023;29;20139;-78
2022/05/02 13:07:28;;;;;;;4.45;1.25;;;17.90;58.90;;;;;;4937110;29;20074;-79
2022/05/02 13:09:56;;;;;;;5.20;1.00;;;17.80;58.90;;;;;;4938329;29;20057;-78
2022/05/02 13:12:22;;;;;;;5.13;1.52;;;17.80;58.90;;;;;;4937024;29;20052;-78
2022/05/02 13:14:57;;;;;;;5.10;1.17;;;17.80;59.10;;;;;;4938011;29;20369;-79
2022/05/02 13:17:24;;;;;;;7.05;1.27;;;17.80;59.10;;;;;;4936610;29;20058;-79
2022/05/02 13:19:51;;;;;;;6.50;1.00;;;17.80;59.20;;;;;;4935965;29;20094;-78
2022/05/02 13:22:16;;;;;;;4.90;1.17;;;17.80;59.30;;;;;;4938420;29;20109;-78
2022/05/02 13:24:53;;;;;;;3.40;1.13;;;17.80;59.50;;;;;;4937684;29;20464;-79
2022/05/02 13:27:21;;;;;;;3.15;1.15;;;17.80;59.40;;;;;;4936432;29;20055;-78
2022/05/02 13:30:05;;;;;;;8.23;1.20;;;17.80;59.50;;;;;;4936673;29;20083;-79
2022/05/02 13:32:41;;;;;;;4.97;1.35;;;17.80;59.50;;;;;;4937315;29;20039;-79
2022/05/02 13:35:10;;;;;;;9.77;1.50;;;17.80;59.40;;;;;;4937358;29;20095;-79
2022/05/02 13:37:39;;;;;;;8.20;1.33;;;17.80;59.20;;;;;;4936800;29;20083;-80
2022/05/02 13:40:09;;;;;;;6.68;1.73;;;17.80;59.00;;;;;;4936561;29;20130;-76
2022/05/02 13:42:44;;;;;;;7.68;1.75;;;17.80;59.10;;;;;;4936888;29;20055;-76
2022/05/02 13:45:22;;;;;;;8.40;1.42;;;17.80;58.80;;;;;;4937043;29;20453;-76
2022/05/02 13:48:26;;;;;;;6.72;2.13;;;17.80;58.40;;;;;;4937106;29;20106;-76
2022/05/02 13:51:20;;;;;;;9.07;1.30;;;17.80;57.90;;;;;;4936439;29;20056;-76
2022/05/02 13:54:28;;;;;;;8.20;2.00;;;17.70;57.90;;;;;;4936446;29;20051;-76
2022/05/02 13:57:03;;;;;;;12.88;2.00;;;17.80;59.00;;;;;;4936693;29;20079;-76
2022/05/02 14:00:11;;;;;;;9.55;1.80;;;17.80;57.50;;;;;;4923544;29;20411;-80
2022/05/02 14:03:02;;;;;;;7.20;1.83;;;17.80;57.10;;;;;;4934184;29;20122;-79
2022/05/02 14:05:59;;;;;;;4.97;1.40;;;17.80;60.10;;;;;;4939908;29;20118;-77
2022/05/02 14:08:34;;;;;;;4.32;1.58;;;17.80;57.90;;;;;;4940322;29;20051;-76
2022/05/02 14:11:00;;;;;;;5.07;1.63;;;17.80;56.00;;;;;;4940598;29;20352;-76
2022/05/02 14:13:30;;;;;;;4.82;1.20;;;17.80;54.70;;;;;;4920595;29;20369;-75
2022/05/02 14:16:07;;;;;;;2.72;1.35;;;17.80;54.40;;;;;;4940590;29;20058;-76
2022/05/02 14:18:50;;;;;;;4.32;1.33;;;17.80;54.40;;;;;;4941110;29;20368;-77
2022/05/02 14:21:17;;;;;;;5.50;1.33;;;17.80;54.40;;;;;;4936153;29;20048;-76
2022/05/02 14:23:48;;;;;;;5.30;1.25;;;17.70;54.20;;;;;;4940769;29;20060;-76
2022/05/02 14:26:13;;;;;;;3.00;0.90;;;17.80;53.90;;;;;;4941367;29;20334;-77
2022/05/02 14:28:48;;;;;;;3.38;1.30;;;17.80;53.80;;;;;;4939924;29;20050;-76
2022/05/02 14:31:14;;;;;;;2.22;1.10;;;17.80;53.30;;;;;;4939672;29;20036;-75
2022/05/02 14:33:40;;;;;;;19.20;2.13;;;17.70;53.10;;;;;;4924650;29;20482;-77
2022/05/02 14:36:17;;;;;;;6.15;1.10;;;17.80;53.60;;;;;;4940496;29;20044;-75
2022/05/02 14:38:45;;;;;;;3.60;0.85;;;17.80;53.70;;;;;;4938929;29;20051;-77
2022/05/02 14:41:12;;;;;;;5.78;0.90;;;17.80;53.40;;;;;;4940101;29;20127;-78
2022/05/02 14:43:39;;;;;;;2.42;0.98;;;17.90;52.00;;;;;;4929834;29;20057;-77
2022/05/02 14:46:08;;;;;;;3.70;0.90;;;17.90;51.20;;;;;;4936101;29;20052;-77
2022/05/02 14:48:39;;;;;;;2.92;0.70;;;17.80;51.10;;;;;;4935041;29;20122;-77
2022/05/02 14:51:09;;;;;;;2.35;0.95;;;17.80;49.90;;;;;;4939515;29;20132;-76
2022/05/02 14:53:39;;;;;;;4.47;0.90;;;17.80;49.80;;;;;;4911210;29;20146;-77
2022/05/02 14:56:09;;;;;;;3.40;0.90;;;17.80;50.60;;;;;;4940192;29;20054;-76
2022/05/02 14:58:38;;;;;;;5.55;0.88;;;17.70;51.30;;;;;;4939008;29;20052;-78
2022/05/02 15:01:09;;;;;;;4.50;0.50;;;17.70;51.60;;;;;;4940159;29;20055;-75
2022/05/02 15:03:46;;;;;;;10.30;1.10;;;17.70;51.40;;;;;;4924400;29;20052;-75
2022/05/02 15:06:13;;;;;;;4.40;1.42;;;17.70;51.60;;;;;;4939309;29;20047;-76
2022/05/02 15:09:16;;;;;;;17.05;8.32;;;17.70;51.60;;;;;;4939971;29;20036;-72
2022/05/02 15:11:48;;;;;;;9.15;2.70;;;17.70;51.00;;;;;;4948290;29;20051;-76
2022/05/02 15:14:35;;;;;;;6.90;1.98;;;17.70;52.10;;;;;;4920760;29;20088;-78
2022/05/02 15:17:21;;;;;;;8.20;2.63;;;17.70;51.80;;;;;;4920819;29;20142;-76
2022/05/02 15:20:19;;;;;;;9.23;2.72;;;17.70;53.90;;;;;;4938024;29;20345;-77
2022/05/02 15:22:58;;;;;;;7.95;2.70;;;17.70;53.10;;;;;;4906968;29;20079;-76
2022/05/02 15:25:27;;;;;;;9.52;3.00;;;17.70;55.40;;;;;;4905689;29;20110;-71
2022/05/02 15:39:19;;;;;;;7.55;1.50;;;17.80;52.90;;;;;;4937953;29;20047;-74
2022/05/02 15:41:45;;;;;;;5.43;1.65;;;17.80;52.70;;;;;;4923010;29;20048;-74
2022/05/02 15:44:19;;;;;;;4.35;1.77;;;17.80;53.00;;;;;;4922497;29;20062;-74
2022/05/02 15:46:48;;;;;;;3.55;1.20;;;17.80;52.20;;;;;;4937214;29;20392;-76
2022/05/02 15:49:15;;;;;;;2.65;0.73;;;17.80;52.70;;;;;;4938969;29;20044;-74
2022/05/02 15:51:50;;;;;;;3.08;0.70;;;17.80;52.10;;;;;;4924719;29;20120;-75
2022/05/02 15:54:18;;;;;;;1.80;0.75;;;17.80;51.60;;;;;;4939048;29;20047;-73
2022/05/02 15:57:12;;;;;;;4.40;0.50;;;17.80;50.40;;;;;;4937909;29;20047;-73
2022/05/02 15:59:46;;;;;;;1.77;0.60;;;17.80;47.80;;;;;;4922472;29;20512;-73
2022/05/02 16:02:19;;;;;;;1.83;0.60;;;17.80;51.00;;;;;;4935046;29;20066;-73
2022/05/02 16:04:56;;;;;;;2.33;0.40;;;17.80;50.90;;;;;;4935799;29;20043;-73
2022/05/02 16:10:40;;;;;;;;;;;17.80;47.40;;;;;;4955119;29;20051;-75
2022/05/02 16:13:08;;;;;;;0.80;0.40;;;17.80;47.00;;;;;;4938677;29;19966;-76
2022/05/02 16:15:41;;;;;;;3.80;0.77;;;17.80;48.20;;;;;;4920143;29;20406;-76
2022/05/02 16:18:08;;;;;;;2.63;0.67;;;17.80;47.30;;;;;;4903013;29;20048;-76
2022/05/02 16:20:40;;;;;;;1.15;0.50;;;17.70;48.30;;;;;;4920300;29;20126;-77
2022/05/02 16:23:08;;;;;;;1.45;0.20;;;17.70;48.10;;;;;;4938449;29;20047;-75
2022/05/02 16:25:36;;;;;;;0.80;0.20;;;17.70;47.90;;;;;;4919884;29;20055;-78
2022/05/02 16:28:15;;;;;;;1.35;0.47;;;17.70;49.00;;;;;;4920925;29;20063;-75
2022/05/02 16:30:43;;;;;;;2.17;0.43;;;17.70;48.90;;;;;;4920894;29;20044;-76
2022/05/02 16:33:23;;;;;;;2.97;0.40;;;17.70;48.80;;;;;;4904762;29;20056;-77
2022/05/02 16:35:50;;;;;;;1.52;0.50;;;17.70;48.60;;;;;;4929928;29;20066;-74
2022/05/02 16:38:36;;;;;;;2.38;0.40;;;17.70;49.20;;;;;;4902936;29;20377;-76
2022/05/02 16:41:11;;;;;;;0.90;0.38;;;17.70;49.10;;;;;;4905143;29;20051;-76
2022/05/02 16:43:45;;;;;;;3.33;0.43;;;17.70;49.00;;;;;;4926877;29;20122;-76
2022/05/02 16:46:16;;;;;;;1.77;0.50;;;17.80;49.40;;;;;;4918497;29;20340;-75
2022/05/02 16:48:41;;;;;;;1.42;0.73;;;17.80;50.20;;;;;;4922590;29;20036;-77
2022/05/02 16:51:09;;;;;;;1.92;0.40;;;17.80;50.10;;;;;;4921704;29;20467;-76
2022/05/02 16:53:36;;;;;;;4.20;0.60;;;17.80;50.20;;;;;;4921109;29;20135;-76
2022/05/02 16:56:01;;;;;;;1.73;0.40;;;17.80;50.10;;;;;;4921326;29;20051;-77
2022/05/02 16:58:28;;;;;;;4.82;0.40;;;17.70;50.20;;;;;;4919459;29;20055;-75
2022/05/02 17:00:56;;;;;;;4.03;0.50;;;17.90;53.00;;;;;;4902144;29;20108;-75
2022/05/02 17:03:27;;;;;;;2.05;0.35;;;17.90;53.20;;;;;;4902110;29;20044;-78
2022/05/02 17:05:58;;;;;;;3.60;0.50;;;18.00;53.20;;;;;;4918949;29;20061;-75
2022/05/02 17:08:24;;;;;;;3.78;0.50;;;18.00;53.30;;;;;;4919307;29;20106;-76
2022/05/02 17:10:51;;;;;;;0.85;0.40;;;18.10;52.20;;;;;;4923330;29;20109;-77
2022/05/02 17:13:19;;;;;;;5.78;0.65;;;18.10;52.30;;;;;;4936352;29;20055;-76
2022/05/02 17:16:09;;;;;;;1.90;0.60;;;18.10;51.10;;;;;;4940373;29;20087;-76
2022/05/02 17:18:59;;;;;;;4.35;0.80;;;18.10;49.10;;;;;;4922784;29;20048;-75
2022/05/02 17:21:35;;;;;;;11.00;1.23;;;18.00;49.10;;;;;;4957778;29;20416;-76
2022/05/02 17:24:04;;;;;;;6.80;1.50;;;18.00;50.90;;;;;;4956538;29;20047;-76
2022/05/02 17:26:46;;;;;;;4.93;0.70;;;18.10;50.20;;;;;;4956950;29;20047;-71
2022/05/02 17:29:13;;;;;;;5.47;0.50;;;18.00;50.50;;;;;;4944071;29;20061;-77
2022/05/02 17:32:04;;;;;;;9.63;1.52;;;18.00;50.70;;;;;;4956596;29;20047;-78
2022/05/02 17:34:41;;;;;;;8.90;1.10;;;18.00;50.80;;;;;;4956510;29;20062;-78
2022/05/02 17:37:20;;;;;;;7.28;0.85;;;18.00;51.00;;;;;;4956147;29;20035;-75
2022/05/02 17:39:50;;;;;;;6.45;0.75;;;18.00;51.20;;;;;;4925700;29;20432;-77
2022/05/02 17:42:21;;;;;;;7.22;0.75;;;18.00;51.40;;;;;;4917556;29;20048;-78
2022/05/02 17:44:53;;;;;;;7.05;0.93;;;18.00;51.60;;;;;;4935389;29;20051;-78
2022/05/02 17:47:24;;;;;;;9.73;1.13;;;17.90;51.50;;;;;;4921720;29;20102;-78
2022/05/02 17:49:58;;;;;;;9.60;0.98;;;17.90;52.10;;;;;;4931894;29;20461;-77
2022/05/02 17:52:28;;;;;;;8.77;0.70;;;17.90;52.60;;;;;;4957053;29;20051;-76
2022/05/02 17:54:56;;;;;;;1.77;0.50;;;17.90;53.30;;;;;;4939645;29;20074;-76
2022/05/02 17:57:26;;;;;;;7.70;0.60;;;17.90;53.60;;;;;;4956387;29;20051;-77
2022/05/02 18:00:12;;;;;;;4.20;0.68;;;17.90;53.90;;;;;;4955334;29;20106;-77
2022/05/02 18:02:43;;;;;;;4.40;0.77;;;17.90;54.30;;;;;;4927014;29;20070;-76
2022/05/02 18:05:13;;;;;;;5.93;0.63;;;17.80;54.20;;;;;;4937749;29;20417;-77
2022/05/02 18:07:41;;;;;;;10.43;1.05;;;17.80;54.20;;;;;;4920803;29;20094;-77
2022/05/02 18:10:25;;;;;;;6.55;0.73;;;17.80;54.40;;;;;;4920679;29;20084;-77
2022/05/02 18:13:11;;;;;;;2.58;0.60;;;17.80;54.60;;;;;;4937208;29;20138;-77
2022/05/02 18:15:42;;;;;;;2.92;0.40;;;17.80;54.80;;;;;;4937514;29;20056;-77
2022/05/02 18:18:28;;;;;;;4.43;0.40;;;17.80;54.90;;;;;;4917947;29;20056;-77
2022/05/02 18:20:59;;;;;;;4.20;0.88;;;17.80;55.20;;;;;;4920813;29;20056;-76
2022/05/02 18:23:25;;;;;;;3.38;0.55;;;17.80;55.20;;;;;;4934728;29;20051;-78
2022/05/02 18:25:57;;;;;;;8.52;0.93;;;17.80;55.30;;;;;;4936442;29;20465;-77
2022/05/02 18:28:32;;;;;;;3.63;0.70;;;17.80;55.40;;;;;;4937270;29;20488;-77
2022/05/02 18:31:29;;;;;;;5.13;0.75;;;17.80;55.10;;;;;;4936831;29;20052;-77
2022/05/02 18:33:58;;;;;;;2.65;0.90;;;17.80;55.00;;;;;;4931563;29;20135;-80
2022/05/02 18:36:24;;;;;;;5.82;0.80;;;17.80;55.10;;;;;;4904511;29;20475;-76
2022/05/02 18:39:05;;;;;;;7.13;1.10;;;17.80;55.50;;;;;;4920047;29;20040;-76
2022/05/02 18:41:49;;;;;;;12.20;1.45;;;17.80;55.80;;;;;;4937131;29;20350;-76
2022/05/02 18:44:26;;;;;;;3.97;0.70;;;17.80;56.00;;;;;;4936354;29;20441;-77
2022/05/02 18:55:22;;;;;;;5.35;0.60;;;17.80;56.50;;;;;;4940663;29;20056;-76
2022/05/02 18:57:53;;;;;;;3.40;0.65;;;17.70;56.40;;;;;;4937419;29;20074;-77
2022/05/02 19:00:24;;;;;;;1.88;0.50;;;17.80;56.40;;;;;;4940393;29;20035;-77
2022/05/02 19:02:50;;;;;;;4.75;0.70;;;17.70;56.50;;;;;;4938793;29;20142;-76
2022/05/02 19:05:21;;;;;;;3.50;0.60;;;17.70;56.50;;;;;;4923518;29;20353;-76
2022/05/02 19:07:49;;;;;;;5.55;0.50;;;17.70;56.50;;;;;;4940266;29;20059;-76
2022/05/02 19:10:18;;;;;;;3.42;0.70;;;17.70;56.50;;;;;;4924231;29;20087;-78
2022/05/02 19:12:52;;;;;;;2.67;0.50;;;17.70;57.10;;;;;;4939197;29;20071;-76
2022/05/02 19:15:41;;;;;;;2.72;0.47;;;17.70;56.00;;;;;;4940100;29;20054;-76
2022/05/02 19:18:07;;;;;;;6.20;0.57;;;17.80;57.00;;;;;;4923161;29;20520;-76
2022/05/02 19:20:55;;;;;;;2.42;0.50;;;17.70;56.70;;;;;;4939772;29;20048;-76
2022/05/02 19:23:32;;;;;;;0.90;0.40;;;17.70;57.30;;;;;;4939962;29;20127;-76
2022/05/02 19:25:59;;;;;;;3.97;0.60;;;17.70;57.40;;;;;;4924033;29;20452;-76
2022/05/02 19:28:26;;;;;;;4.80;0.70;;;17.70;57.50;;;;;;4938520;29;20087;-73
2022/05/02 19:30:53;;;;;;;4.40;0.70;;;17.70;57.20;;;;;;4922496;29;20118;-74
2022/05/02 19:33:31;;;;;;;4.30;0.80;;;17.70;56.70;;;;;;4938851;29;20052;-72
2022/05/02 19:39:07;;;;;;;2.58;1.60;;;17.70;55.00;;;;;;4923702;29;20052;-73
2022/05/02 19:41:53;;;;;;;2.70;1.48;;;17.70;54.40;;;;;;4940354;29;20055;-72